Fort Kent Mills, ME (04744)

3:58 PM EDT on August 29, 2016 (GMT -0400)
Apex Wx | | Change Station

Elev 541 ft 47.25 °N, 68.58 °W | Updated 38 seconds ago

Mostly Cloudy
Mostly Cloudy
67.5 °F
Feels Like 67.5 °F
N
4.0
Wind Variable Wind from North
Gusts 13.0 mph

Today
High -- | Low -- °F
--% Chance of Precip.
Yesterday
High -- | Low -- °F
Precip. -- in
Pressure 29.98 in
Visibility 10.0 miles
Clouds Scattered Clouds 3400 ft
Mostly Cloudy 4100 ft
Mostly Cloudy 6000 ft
Dew Point 55 °F
Humidity 64%
Rainfall 0.07 in
Snow Depth Not available.
5:50 AM 7:19 PM
Waning Crescent, 7% visible
METAR KFVE 291953Z AUTO 32012G22KT 10SM SCT034 BKN041 BKN060 19/11 A2999 RMK AO2 PK WND 35026/1901 SLP152 T01940111
Pressure 29.98 in
Visibility 10.0 miles
Clouds Scattered Clouds 3400 ft
Mostly Cloudy 4100 ft
Mostly Cloudy 6000 ft
Dew Point 55 °F
Humidity 64%
Rainfall 0.07 in
Snow Depth Not available.
5:50 AM 7:19 PM
Waning Crescent, 7% visible
METAR KFVE 291953Z AUTO 32012G22KT 10SM SCT034 BKN041 BKN060 19/11 A2999 RMK AO2 PK WND 35026/1901 SLP152 T01940111

10-Day Weather Forecast

Almanac

Astronomy

Aug. 29, 2016 Rise Set
Actual Time
Civil Twilight
Nautical Twilight
Astronomical Twilight
Moon
Length of Visible Light
Length of Day
Tomorrow will be .
, % of the Moon is Illuminated

Today's Extremes

State Highs State Lows

Community

WunderPhotos

Upload Photos

1,935,642 photos uploaded!

WunderBlog® & News

Nearby

Air Quality

  Air Quality AQ Index Pollutant
Not available.

Snow Depth

Station Depth Elevation

Earthquake Activity

City Distance Mag. Time & Date
Minimum magnitude displayed is 2.5.

Coastal Water Temperatures

Place Temperature

Stations

Nearby Weather Stations

Station Location Temp. Windchill Dew Point Humidity Wind Precip. Elev Updated Type
                   

Watches & Warnings

There are currently no watches in effect.